sensor_id;sensor_type;location;lat;lon;timestamp;pressure;altitude;pressure_sealevel;temperature
78961;BMP280;68362;45.970;12.646;2023-07-09T00:00:12;101644.00;;;23.14
78961;BMP280;68362;45.970;12.646;2023-07-09T00:01:35;101648.16;;;22.73
78961;BMP280;68362;45.970;12.646;2023-07-09T00:02:39;101639.25;;;22.82
78961;BMP280;68362;45.970;12.646;2023-07-09T00:03:41;101643.34;;;22.99
78961;BMP280;68362;45.970;12.646;2023-07-09T00:04:43;101640.66;;;22.99
78961;BMP280;68362;45.970;12.646;2023-07-09T00:05:48;101635.78;;;23.30
78961;BMP280;68362;45.970;12.646;2023-07-09T00:06:51;101644.09;;;23.28
78961;BMP280;68362;45.970;12.646;2023-07-09T00:07:53;101634.84;;;23.39
78961;BMP280;68362;45.970;12.646;2023-07-09T00:08:55;101630.06;;;23.36
78961;BMP280;68362;45.970;12.646;2023-07-09T00:09:58;101640.16;;;23.44
78961;BMP280;68362;45.970;12.646;2023-07-09T00:11:04;101641.25;;;23.43
78961;BMP280;68362;45.970;12.646;2023-07-09T00:12:12;101644.91;;;23.53
78961;BMP280;68362;45.970;12.646;2023-07-09T00:13:14;101636.97;;;23.42
78961;BMP280;68362;45.970;12.646;2023-07-09T00:14:17;101641.38;;;23.52
78961;BMP280;68362;45.970;12.646;2023-07-09T00:15:19;101637.78;;;23.62
78961;BMP280;68362;45.970;12.646;2023-07-09T00:16:25;101641.19;;;23.67
78961;BMP280;68362;45.970;12.646;2023-07-09T00:17:30;101642.13;;;23.58
78961;BMP280;68362;45.970;12.646;2023-07-09T00:18:32;101639.28;;;23.30
78961;BMP280;68362;45.970;12.646;2023-07-09T00:19:37;101636.97;;;23.42
78961;BMP280;68362;45.970;12.646;2023-07-09T00:20:39;101645.31;;;23.17
78961;BMP280;68362;45.970;12.646;2023-07-09T00:21:47;101647.53;;;23.10
78961;BMP280;68362;45.970;12.646;2023-07-09T00:22:49;101647.41;;;23.20
78961;BMP280;68362;45.970;12.646;2023-07-09T00:23:54;101655.50;;;23.15
78961;BMP280;68362;45.970;12.646;2023-07-09T00:24:56;101646.91;;;23.18
78961;BMP280;68362;45.970;12.646;2023-07-09T00:25:58;101653.34;;;23.17
78961;BMP280;68362;45.970;12.646;2023-07-09T00:27:01;101649.91;;;23.35
78961;BMP280;68362;45.970;12.646;2023-07-09T00:28:03;101642.75;;;23.31
78961;BMP280;68362;45.970;12.646;2023-07-09T00:29:10;101647.81;;;23.32
78961;BMP280;68362;45.970;12.646;2023-07-09T00:30:16;101647.53;;;23.10
78961;BMP280;68362;45.970;12.646;2023-07-09T00:31:18;101646.91;;;22.65
78961;BMP280;68362;45.970;12.646;2023-07-09T00:32:20;101648.59;;;22.56
78961;BMP280;68362;45.970;12.646;2023-07-09T00:33:23;101643.31;;;22.75
78961;BMP280;68362;45.970;12.646;2023-07-09T00:34:29;101653.94;;;22.56
78961;BMP280;68362;45.970;12.646;2023-07-09T00:35:31;101644.22;;;22.31
78961;BMP280;68362;45.970;12.646;2023-07-09T00:36:34;101642.38;;;22.27
78961;BMP280;68362;45.970;12.646;2023-07-09T00:37:36;101643.59;;;22.00
78961;BMP280;68362;45.970;12.646;2023-07-09T00:38:38;101637.44;;;22.05
78961;BMP280;68362;45.970;12.646;2023-07-09T00:39:42;101642.75;;;22.10
78961;BMP280;68362;45.970;12.646;2023-07-09T00:41:05;101646.88;;;22.31
78961;BMP280;68362;45.970;12.646;2023-07-09T00:42:15;101643.41;;;22.31
78961;BMP280;68362;45.970;12.646;2023-07-09T00:43:19;101642.38;;;22.27
78961;BMP280;68362;45.970;12.646;2023-07-09T00:44:31;101639.44;;;22.62
78961;BMP280;68362;45.970;12.646;2023-07-09T00:45:35;101644.00;;;22.22
78961;BMP280;68362;45.970;12.646;2023-07-09T00:48:03;101640.81;;;22.54
78961;BMP280;68362;45.970;12.646;2023-07-09T00:49:09;101639.91;;;22.69
78961;BMP280;68362;45.970;12.646;2023-07-09T00:50:34;101642.16;;;22.86
78961;BMP280;68362;45.970;12.646;2023-07-09T00:51:40;101643.53;;;22.83
78961;BMP280;68362;45.970;12.646;2023-07-09T00:52:52;101637.84;;;22.85
78961;BMP280;68362;45.970;12.646;2023-07-09T00:54:03;101645.78;;;23.00
78961;BMP280;68362;45.970;12.646;2023-07-09T00:55:12;101640.81;;;23.12
78961;BMP280;68362;45.970;12.646;2023-07-09T00:56:29;101637.84;;;23.14
78961;BMP280;68362;45.970;12.646;2023-07-09T00:57:35;101646.50;;;23.06
78961;BMP280;68362;45.970;12.646;2023-07-09T00:58:42;101643.19;;;23.14
78961;BMP280;68362;45.970;12.646;2023-07-09T00:59:59;101645.38;;;23.12
78961;BMP280;68362;45.970;12.646;2023-07-09T01:01:04;101647.53;;;23.10
78961;BMP280;68362;45.970;12.646;2023-07-09T01:02:09;101642.38;;;22.90
78961;BMP280;68362;45.970;12.646;2023-07-09T01:03:18;101638.56;;;22.96
78961;BMP280;68362;45.970;12.646;2023-07-09T01:04:22;101646.00;;;23.04
78961;BMP280;68362;45.970;12.646;2023-07-09T01:05:25;101641.81;;;22.93
78961;BMP280;68362;45.970;12.646;2023-07-09T01:06:34;101642.38;;;22.90
78961;BMP280;68362;45.970;12.646;2023-07-09T01:07:37;101643.41;;;22.94
78961;BMP280;68362;45.970;12.646;2023-07-09T01:08:40;101649.25;;;23.01
78961;BMP280;68362;45.970;12.646;2023-07-09T01:09:45;101650.09;;;22.67
78961;BMP280;68362;45.970;12.646;2023-07-09T01:10:47;101648.16;;;22.73
78961;BMP280;68362;45.970;12.646;2023-07-09T01:11:50;101646.19;;;22.83
78961;BMP280;68362;45.970;12.646;2023-07-09T01:12:52;101652.88;;;22.86
78961;BMP280;68362;45.970;12.646;2023-07-09T01:13:56;101657.50;;;22.75
78961;BMP280;68362;45.970;12.646;2023-07-09T01:14:59;101651.91;;;22.72
78961;BMP280;68362;45.970;12.646;2023-07-09T01:16:02;101655.41;;;22.72
78961;BMP280;68362;45.970;12.646;2023-07-09T01:17:06;101648.88;;;22.83
78961;BMP280;68362;45.970;12.646;2023-07-09T01:18:09;101649.34;;;22.91
78961;BMP280;68362;45.970;12.646;2023-07-09T01:19:13;101655.69;;;23.00
78961;BMP280;68362;45.970;12.646;2023-07-09T01:20:19;101651.88;;;23.06
78961;BMP280;68362;45.970;12.646;2023-07-09T01:21:23;101657.22;;;23.06
78961;BMP280;68362;45.970;12.646;2023-07-09T01:22:26;101655.03;;;23.08
78961;BMP280;68362;45.970;12.646;2023-07-09T01:23:29;101659.59;;;22.83
78961;BMP280;68362;45.970;12.646;2023-07-09T01:25:00;101661.13;;;22.61
78961;BMP280;68362;45.970;12.646;2023-07-09T01:26:05;101661.28;;;22.74
78961;BMP280;68362;45.970;12.646;2023-07-09T01:27:09;101661.16;;;22.84
78961;BMP280;68362;45.970;12.646;2023-07-09T01:28:12;101658.31;;;22.76
78961;BMP280;68362;45.970;12.646;2023-07-09T01:29:14;101651.63;;;22.73
78961;BMP280;68362;45.970;12.646;2023-07-09T01:30:23;101653.28;;;22.69
78961;BMP280;68362;45.970;12.646;2023-07-09T01:31:26;101654.81;;;22.75
78961;BMP280;68362;45.970;12.646;2023-07-09T01:32:28;101658.47;;;22.84
78961;BMP280;68362;45.970;12.646;2023-07-09T01:33:30;101650.59;;;22.69
78961;BMP280;68362;45.970;12.646;2023-07-09T01:34:33;101651.31;;;22.80
78961;BMP280;68362;45.970;12.646;2023-07-09T01:35:38;101653.66;;;22.87
78961;BMP280;68362;45.970;12.646;2023-07-09T01:36:42;101650.53;;;22.79
78961;BMP280;68362;45.970;12.646;2023-07-09T01:37:46;101648.34;;;22.81
78961;BMP280;68362;45.970;12.646;2023-07-09T01:38:49;101650.44;;;22.84
78961;BMP280;68362;45.970;12.646;2023-07-09T01:39:52;101647.75;;;22.90
78961;BMP280;68362;45.970;12.646;2023-07-09T01:40:54;101652.94;;;22.76
78961;BMP280;68362;45.970;12.646;2023-07-09T01:41:57;101646.22;;;22.78
78961;BMP280;68362;45.970;12.646;2023-07-09T01:43:00;101649.91;;;22.88
78961;BMP280;68362;45.970;12.646;2023-07-09T01:44:03;101650.69;;;22.88
78961;BMP280;68362;45.970;12.646;2023-07-09T01:45:08;101653.44;;;22.83
78961;BMP280;68362;45.970;12.646;2023-07-09T01:46:12;101654.56;;;22.43
78961;BMP280;68362;45.970;12.646;2023-07-09T01:47:14;101651.56;;;22.15
78961;BMP280;68362;45.970;12.646;2023-07-09T01:48:18;101637.50;;;22.39
78961;BMP280;68362;45.970;12.646;2023-07-09T01:49:21;101648.81;;;22.20
78961;BMP280;68362;45.970;12.646;2023-07-09T01:50:24;101646.50;;;22.48
78961;BMP280;68362;45.970;12.646;2023-07-09T01:51:27;101644.28;;;22.60
78961;BMP280;68362;45.970;12.646;2023-07-09T01:52:31;101646.97;;;22.55
78961;BMP280;68362;45.970;12.646;2023-07-09T01:53:34;101643.31;;;22.41
78961;BMP280;68362;45.970;12.646;2023-07-09T01:54:37;101640.56;;;22.17
78961;BMP280;68362;45.970;12.646;2023-07-09T01:55:40;101640.78;;;22.20
78961;BMP280;68362;45.970;12.646;2023-07-09T01:56:42;101647.69;;;22.32
78961;BMP280;68362;45.970;12.646;2023-07-09T01:57:44;101639.66;;;22.32
78961;BMP280;68362;45.970;12.646;2023-07-09T01:58:47;101647.78;;;22.21
78961;BMP280;68362;45.970;12.646;2023-07-09T01:59:52;101649.38;;;22.22
78961;BMP280;68362;45.970;12.646;2023-07-09T02:00:55;101653.50;;;22.05
78961;BMP280;68362;45.970;12.646;2023-07-09T02:01:57;101653.13;;;22.21
78961;BMP280;68362;45.970;12.646;2023-07-09T02:02:59;101649.69;;;22.16
78961;BMP280;68362;45.970;12.646;2023-07-09T02:04:03;101652.69;;;22.09
78961;BMP280;68362;45.970;12.646;2023-07-09T02:05:06;101647.25;;;22.14
78961;BMP280;68362;45.970;12.646;2023-07-09T02:06:08;101645.06;;;22.27
78961;BMP280;68362;45.970;12.646;2023-07-09T02:07:11;101643.88;;;22.43
78961;BMP280;68362;45.970;12.646;2023-07-09T02:08:13;101651.91;;;22.43
78961;BMP280;68362;45.970;12.646;2023-07-09T02:09:16;101653.44;;;22.49
78961;BMP280;68362;45.970;12.646;2023-07-09T02:10:18;101659.03;;;22.52
78961;BMP280;68362;45.970;12.646;2023-07-09T02:11:20;101657.22;;;22.48
78961;BMP280;68362;45.970;12.646;2023-07-09T02:12:22;101659.47;;;22.31
78961;BMP280;68362;45.970;12.646;2023-07-09T02:13:25;101652.31;;;22.21
78961;BMP280;68362;45.970;12.646;2023-07-09T02:14:27;101654.22;;;21.66
78961;BMP280;68362;45.970;12.646;2023-07-09T02:15:29;101667.25;;;21.83
78961;BMP280;68362;45.970;12.646;2023-07-09T02:16:32;101659.09;;;22.03
78961;BMP280;68362;45.970;12.646;2023-07-09T02:17:35;101654.06;;;21.97
78961;BMP280;68362;45.970;12.646;2023-07-09T02:18:37;101659.97;;;21.99
78961;BMP280;68362;45.970;12.646;2023-07-09T02:19:39;101659.16;;;21.98
78961;BMP280;68362;45.970;12.646;2023-07-09T02:20:41;101657.47;;;22.07
78961;BMP280;68362;45.970;12.646;2023-07-09T02:21:43;101656.25;;;21.89
78961;BMP280;68362;45.970;12.646;2023-07-09T02:22:46;101656.34;;;21.74
78961;BMP280;68362;45.970;12.646;2023-07-09T02:23:48;101652.59;;;21.70
78961;BMP280;68362;45.970;12.646;2023-07-09T02:24:50;101656.13;;;21.60
78961;BMP280;68362;45.970;12.646;2023-07-09T02:25:55;101650.13;;;21.84
78961;BMP280;68362;45.970;12.646;2023-07-09T02:26:58;101651.19;;;21.88
78961;BMP280;68362;45.970;12.646;2023-07-09T02:28:01;101652.16;;;22.02
78961;BMP280;68362;45.970;12.646;2023-07-09T02:29:03;101652.13;;;22.12
78961;BMP280;68362;45.970;12.646;2023-07-09T02:30:06;101651.00;;;22.18
78961;BMP280;68362;45.970;12.646;2023-07-09T02:31:08;101654.38;;;21.95
78961;BMP280;68362;45.970;12.646;2023-07-09T02:32:17;101652.19;;;21.97
78961;BMP280;68362;45.970;12.646;2023-07-09T02:33:20;101647.91;;;22.01
78961;BMP280;68362;45.970;12.646;2023-07-09T02:34:24;101645.44;;;22.10
78961;BMP280;68362;45.970;12.646;2023-07-09T02:35:27;101656.25;;;21.89
78961;BMP280;68362;45.970;12.646;2023-07-09T02:36:29;101652.16;;;22.02
78961;BMP280;68362;45.970;12.646;2023-07-09T02:37:31;101643.88;;;22.04
78961;BMP280;68362;45.970;12.646;2023-07-09T02:38:35;101642.00;;;22.04
78961;BMP280;68362;45.970;12.646;2023-07-09T02:39:37;101649.50;;;21.97
78961;BMP280;68362;45.970;12.646;2023-07-09T02:40:39;101649.38;;;21.78
78961;BMP280;68362;45.970;12.646;2023-07-09T02:41:41;101651.84;;;21.59
78961;BMP280;68362;45.970;12.646;2023-07-09T02:42:43;101658.25;;;21.64
78961;BMP280;68362;45.970;12.646;2023-07-09T02:43:45;101645.50;;;21.35
78961;BMP280;68362;45.970;12.646;2023-07-09T02:44:48;101657.59;;;21.02
78961;BMP280;68362;45.970;12.646;2023-07-09T02:45:50;101656.00;;;20.81
78961;BMP280;68362;45.970;12.646;2023-07-09T02:46:52;101655.44;;;20.79
78961;BMP280;68362;45.970;12.646;2023-07-09T02:47:54;101659.44;;;21.12
78961;BMP280;68362;45.970;12.646;2023-07-09T02:48:57;101656.78;;;21.01
78961;BMP280;68362;45.970;12.646;2023-07-09T02:49:59;101657.34;;;20.98
78961;BMP280;68362;45.970;12.646;2023-07-09T02:51:02;101649.59;;;20.77
78961;BMP280;68362;45.970;12.646;2023-07-09T02:52:05;101657.88;;;20.85
78961;BMP280;68362;45.970;12.646;2023-07-09T02:53:07;101648.25;;;21.05
78961;BMP280;68362;45.970;12.646;2023-07-09T02:54:09;101650.34;;;21.18
78961;BMP280;68362;45.970;12.646;2023-07-09T02:55:12;101651.44;;;21.17
78961;BMP280;68362;45.970;12.646;2023-07-09T02:56:14;101653.03;;;21.28
78961;BMP280;68362;45.970;12.646;2023-07-09T02:57:16;101651.66;;;21.36
78961;BMP280;68362;45.970;12.646;2023-07-09T02:58:18;101655.69;;;21.23
78961;BMP280;68362;45.970;12.646;2023-07-09T02:59:21;101649.53;;;21.12
78961;BMP280;68362;45.970;12.646;2023-07-09T03:00:23;101658.41;;;20.87
78961;BMP280;68362;45.970;12.646;2023-07-09T03:01:25;101661.03;;;21.08
78961;BMP280;68362;45.970;12.646;2023-07-09T03:02:29;101660.53;;;20.80
78961;BMP280;68362;45.970;12.646;2023-07-09T03:03:31;101661.63;;;20.84
78961;BMP280;68362;45.970;12.646;2023-07-09T03:04:33;101655.72;;;21.02
78961;BMP280;68362;45.970;12.646;2023-07-09T03:05:35;101663.69;;;21.23
78961;BMP280;68362;45.970;12.646;2023-07-09T03:06:37;101660.78;;;20.94
78961;BMP280;68362;45.970;12.646;2023-07-09T03:07:40;101658.09;;;21.09
78961;BMP280;68362;45.970;12.646;2023-07-09T03:08:42;101662.63;;;21.24
78961;BMP280;68362;45.970;12.646;2023-07-09T03:09:44;101659.47;;;20.81
78961;BMP280;68362;45.970;12.646;2023-07-09T03:10:46;101653.88;;;20.52
78961;BMP280;68362;45.970;12.646;2023-07-09T03:11:49;101654.66;;;21.04
78961;BMP280;68362;45.970;12.646;2023-07-09T03:12:51;101663.75;;;20.92
78961;BMP280;68362;45.970;12.646;2023-07-09T03:13:53;101663.19;;;21.06
78961;BMP280;68362;45.970;12.646;2023-07-09T03:14:56;101663.69;;;21.23
78961;BMP280;68362;45.970;12.646;2023-07-09T03:15:58;101660.44;;;21.41
78961;BMP280;68362;45.970;12.646;2023-07-09T03:17:00;101666.88;;;21.45
78961;BMP280;68362;45.970;12.646;2023-07-09T03:18:03;101671.72;;;21.08
78961;BMP280;68362;45.970;12.646;2023-07-09T03:19:05;101661.56;;;21.15
78961;BMP280;68362;45.970;12.646;2023-07-09T03:20:08;101661.59;;;20.74
78961;BMP280;68362;45.970;12.646;2023-07-09T03:21:10;101659.44;;;21.12
78961;BMP280;68362;45.970;12.646;2023-07-09T03:22:12;101665.03;;;21.30
78961;BMP280;68362;45.970;12.646;2023-07-09T03:23:15;101663.22;;;20.85
78961;BMP280;68362;45.970;12.646;2023-07-09T03:24:17;101654.94;;;20.87
78961;BMP280;68362;45.970;12.646;2023-07-09T03:25:21;101657.03;;;21.05
78961;BMP280;68362;45.970;12.646;2023-07-09T03:26:23;101658.91;;;21.20
78961;BMP280;68362;45.970;12.646;2023-07-09T03:27:27;101661.53;;;21.45
78961;BMP280;68362;45.970;12.646;2023-07-09T03:28:31;101669.81;;;21.39
78961;BMP280;68362;45.970;12.646;2023-07-09T03:29:33;101670.00;;;21.57
78961;BMP280;68362;45.970;12.646;2023-07-09T03:30:40;101678.06;;;21.52
78961;BMP280;68362;45.970;12.646;2023-07-09T03:31:42;101677.50;;;21.50
78961;BMP280;68362;45.970;12.646;2023-07-09T03:32:45;101679.63;;;21.58
78961;BMP280;68362;45.970;12.646;2023-07-09T03:33:48;101679.13;;;21.41
78961;BMP280;68362;45.970;12.646;2023-07-09T03:34:51;101681.28;;;21.29
78961;BMP280;68362;45.970;12.646;2023-07-09T03:35:54;101680.72;;;21.47
78961;BMP280;68362;45.970;12.646;2023-07-09T03:36:57;101682.28;;;21.69
78961;BMP280;68362;45.970;12.646;2023-07-09T03:37:59;101685.00;;;21.53
78961;BMP280;68362;45.970;12.646;2023-07-09T03:39:01;101686.59;;;21.54
78961;BMP280;68362;45.970;12.646;2023-07-09T03:40:04;101684.41;;;21.61
78961;BMP280;68362;45.970;12.646;2023-07-09T03:41:08;101686.03;;;21.57
78961;BMP280;68362;45.970;12.646;2023-07-09T03:42:10;101686.94;;;20.97
78961;BMP280;68362;45.970;12.646;2023-07-09T03:43:13;101693.63;;;21.25
78961;BMP280;68362;45.970;12.646;2023-07-09T03:44:15;101694.63;;;21.54
78961;BMP280;68362;45.970;12.646;2023-07-09T03:45:18;101691.38;;;21.68
78961;BMP280;68362;45.970;12.646;2023-07-09T03:46:20;101699.38;;;21.68
78961;BMP280;68362;45.970;12.646;2023-07-09T03:47:22;101698.84;;;21.71
78961;BMP280;68362;45.970;12.646;2023-07-09T03:48:24;101696.72;;;21.68
78961;BMP280;68362;45.970;12.646;2023-07-09T03:49:27;101697.75;;;21.72
78961;BMP280;68362;45.970;12.646;2023-07-09T03:50:29;101701.47;;;21.76
78961;BMP280;68362;45.970;12.646;2023-07-09T03:51:31;101697.72;;;21.87
78961;BMP280;68362;45.970;12.646;2023-07-09T03:52:34;101701.31;;;21.57
78961;BMP280;68362;45.970;12.646;2023-07-09T03:53:36;101705.38;;;21.39
78961;BMP280;68362;45.970;12.646;2023-07-09T03:54:38;101705.31;;;21.59
78961;BMP280;68362;45.970;12.646;2023-07-09T03:55:41;101702.28;;;21.76
78961;BMP280;68362;45.970;12.646;2023-07-09T03:56:43;101697.19;;;21.85
78961;BMP280;68362;45.970;12.646;2023-07-09T03:57:46;101700.69;;;21.80
78961;BMP280;68362;45.970;12.646;2023-07-09T03:58:48;101703.13;;;21.61
78961;BMP280;68362;45.970;12.646;2023-07-09T03:59:50;101699.91;;;21.75
78961;BMP280;68362;45.970;12.646;2023-07-09T04:00:53;101700.94;;;21.79
78961;BMP280;68362;45.970;12.646;2023-07-09T04:01:57;101699.03;;;21.89
78961;BMP280;68362;45.970;12.646;2023-07-09T04:02:59;101699.38;;;21.78
78961;BMP280;68362;45.970;12.646;2023-07-09T04:04:01;101697.00;;;21.71
78961;BMP280;68362;45.970;12.646;2023-07-09T04:05:05;101697.44;;;21.88
78961;BMP280;68362;45.970;12.646;2023-07-09T04:06:08;101696.63;;;21.88
78961;BMP280;68362;45.970;12.646;2023-07-09T04:07:10;101703.53;;;21.99
78961;BMP280;68362;45.970;12.646;2023-07-09T04:08:12;101695.78;;;21.98
78961;BMP280;68362;45.970;12.646;2023-07-09T04:09:14;101697.19;;;21.80
78961;BMP280;68362;45.970;12.646;2023-07-09T04:10:17;101709.47;;;21.86
78961;BMP280;68362;45.970;12.646;2023-07-09T04:11:19;101695.53;;;21.99
78961;BMP280;68362;45.970;12.646;2023-07-09T04:12:21;101689.63;;;22.02
78961;BMP280;68362;45.970;12.646;2023-07-09T04:13:23;101698.16;;;22.04
78961;BMP280;68362;45.970;12.646;2023-07-09T04:14:26;101699.34;;;21.83
78961;BMP280;68362;45.970;12.646;2023-07-09T04:15:28;101695.03;;;21.87
78961;BMP280;68362;45.970;12.646;2023-07-09T04:16:30;101696.88;;;21.91
78961;BMP280;68362;45.970;12.646;2023-07-09T04:17:32;101688.34;;;21.89
78961;BMP280;68362;45.970;12.646;2023-07-09T04:18:35;101697.19;;;21.85
78961;BMP280;68362;45.970;12.646;2023-07-09T04:19:37;101691.28;;;21.88
78961;BMP280;68362;45.970;12.646;2023-07-09T04:20:40;101689.28;;;21.59
78961;BMP280;68362;45.970;12.646;2023-07-09T04:21:42;101700.03;;;21.19
78961;BMP280;68362;45.970;12.646;2023-07-09T04:22:44;101702.97;;;21.27
78961;BMP280;68362;45.970;12.646;2023-07-09T04:23:47;101698.44;;;21.02
78961;BMP280;68362;45.970;12.646;2023-07-09T04:24:51;101701.38;;;21.11
78961;BMP280;68362;45.970;12.646;2023-07-09T04:25:54;101704.31;;;21.25
78961;BMP280;68362;45.970;12.646;2023-07-09T04:26:56;101703.78;;;21.28
78961;BMP280;68362;45.970;12.646;2023-07-09T04:27:58;101701.88;;;21.34
78961;BMP280;68362;45.970;12.646;2023-07-09T04:29:01;101709.13;;;21.08
78961;BMP280;68362;45.970;12.646;2023-07-09T04:30:08;101702.13;;;21.37
78961;BMP280;68362;45.970;12.646;2023-07-09T04:31:12;101708.53;;;21.41
78961;BMP280;68362;45.970;12.646;2023-07-09T04:32:14;101701.31;;;21.57
78961;BMP280;68362;45.970;12.646;2023-07-09T04:33:18;101709.00;;;21.69
78961;BMP280;68362;45.970;12.646;2023-07-09T04:34:21;101708.41;;;21.82
78961;BMP280;68362;45.970;12.646;2023-07-09T04:35:23;101710.78;;;21.93
78961;BMP280;68362;45.970;12.646;2023-07-09T04:36:26;101709.09;;;22.08
78961;BMP280;68362;45.970;12.646;2023-07-09T04:37:28;101705.63;;;22.12
78961;BMP280;68362;45.970;12.646;2023-07-09T04:38:30;101713.84;;;22.21
78961;BMP280;68362;45.970;12.646;2023-07-09T04:39:35;101709.78;;;22.23
78961;BMP280;68362;45.970;12.646;2023-07-09T04:40:37;101709.00;;;22.28
78961;BMP280;68362;45.970;12.646;2023-07-09T04:41:40;101712.44;;;22.34
78961;BMP280;68362;45.970;12.646;2023-07-09T04:42:42;101711.91;;;22.37
78961;BMP280;68362;45.970;12.646;2023-07-09T04:43:45;101714.66;;;22.21
78961;BMP280;68362;45.970;12.646;2023-07-09T04:44:47;101723.13;;;22.39
78961;BMP280;68362;45.970;12.646;2023-07-09T04:45:49;101712.97;;;22.36
78961;BMP280;68362;45.970;12.646;2023-07-09T04:46:52;101717.44;;;22.01
78961;BMP280;68362;45.970;12.646;2023-07-09T04:47:55;101714.28;;;21.89
78961;BMP280;68362;45.970;12.646;2023-07-09T04:48:57;101710.16;;;22.12
78961;BMP280;68362;45.970;12.646;2023-07-09T04:49:59;101713.25;;;22.29
78961;BMP280;68362;45.970;12.646;2023-07-09T04:51:01;101710.31;;;22.31
78961;BMP280;68362;45.970;12.646;2023-07-09T04:52:04;101714.09;;;22.25
78961;BMP280;68362;45.970;12.646;2023-07-09T04:53:06;101708.09;;;21.99
78961;BMP280;68362;45.970;12.646;2023-07-09T04:54:08;101710.53;;;21.95
78961;BMP280;68362;45.970;12.646;2023-07-09T04:55:10;101710.31;;;21.76
78961;BMP280;68362;45.970;12.646;2023-07-09T04:56:13;101699.34;;;21.83
78961;BMP280;68362;45.970;12.646;2023-07-09T04:57:15;101712.47;;;21.74
78961;BMP280;68362;45.970;12.646;2023-07-09T04:58:17;101709.28;;;21.67
78961;BMP280;68362;45.970;12.646;2023-07-09T04:59:23;101706.91;;;21.60
78961;BMP280;68362;45.970;12.646;2023-07-09T05:00:25;101713.28;;;21.65
78961;BMP280;68362;45.970;12.646;2023-07-09T05:01:27;101712.28;;;21.40
78961;BMP280;68362;45.970;12.646;2023-07-09T05:02:30;101717.63;;;21.30
78961;BMP280;68362;45.970;12.646;2023-07-09T05:03:32;101713.38;;;21.34
78961;BMP280;68362;45.970;12.646;2023-07-09T05:04:35;101708.47;;;21.72
78961;BMP280;68362;45.970;12.646;2023-07-09T05:05:46;101706.81;;;21.86
78961;BMP280;68362;45.970;12.646;2023-07-09T05:06:49;101710.75;;;22.04
78961;BMP280;68362;45.970;12.646;2023-07-09T05:07:51;101710.91;;;22.17
78961;BMP280;68362;45.970;12.646;2023-07-09T05:08:53;101712.97;;;22.36
78961;BMP280;68362;45.970;12.646;2023-07-09T05:09:55;101717.22;;;22.42
78961;BMP280;68362;45.970;12.646;2023-07-09T05:10:57;101715.94;;;22.29
78961;BMP280;68362;45.970;12.646;2023-07-09T05:12:00;101716.56;;;22.55
78961;BMP280;68362;45.970;12.646;2023-07-09T05:13:02;101715.34;;;22.37
78961;BMP280;68362;45.970;12.646;2023-07-09T05:14:04;101719.59;;;22.43
78961;BMP280;68362;45.970;12.646;2023-07-09T05:15:06;101715.72;;;22.20
78961;BMP280;68362;45.970;12.646;2023-07-09T05:16:09;101720.97;;;21.86
78961;BMP280;68362;45.970;12.646;2023-07-09T05:17:15;101718.16;;;22.12
78961;BMP280;68362;45.970;12.646;2023-07-09T05:18:17;101716.22;;;22.28
78961;BMP280;68362;45.970;12.646;2023-07-09T05:19:20;101721.88;;;22.21
78961;BMP280;68362;45.970;12.646;2023-07-09T05:20:22;101720.31;;;22.10
78961;BMP280;68362;45.970;12.646;2023-07-09T05:21:25;101730.16;;;22.30
78961;BMP280;68362;45.970;12.646;2023-07-09T05:22:27;101723.13;;;22.39
78961;BMP280;68362;45.970;12.646;2023-07-09T05:23:29;101724.16;;;22.38
78961;BMP280;68362;45.970;12.646;2023-07-09T05:24:31;101724.50;;;22.70
78961;BMP280;68362;45.970;12.646;2023-07-09T05:25:34;101727.16;;;22.36
78961;BMP280;68362;45.970;12.646;2023-07-09T05:26:36;101729.75;;;22.46
78961;BMP280;68362;45.970;12.646;2023-07-09T05:27:38;101732.72;;;22.45
78961;BMP280;68362;45.970;12.646;2023-07-09T05:28:40;101728.28;;;22.25
78961;BMP280;68362;45.970;12.646;2023-07-09T05:29:42;101724.72;;;22.35
78961;BMP280;68362;45.970;12.646;2023-07-09T05:30:44;101727.88;;;22.47
78961;BMP280;68362;45.970;12.646;2023-07-09T05:31:46;101727.13;;;22.41
78961;BMP280;68362;45.970;12.646;2023-07-09T05:32:49;101722.69;;;22.61
78961;BMP280;68362;45.970;12.646;2023-07-09T05:33:51;101719.06;;;22.80
78961;BMP280;68362;45.970;12.646;2023-07-09T05:34:53;101722.50;;;22.86
78961;BMP280;68362;45.970;12.646;2023-07-09T05:35:55;101730.00;;;22.50
78961;BMP280;68362;45.970;12.646;2023-07-09T05:36:57;101724.47;;;22.31
78961;BMP280;68362;45.970;12.646;2023-07-09T05:38:02;101733.63;;;22.25
78961;BMP280;68362;45.970;12.646;2023-07-09T05:39:04;101728.84;;;22.22
78961;BMP280;68362;45.970;12.646;2023-07-09T05:40:08;101729.44;;;22.09
78961;BMP280;68362;45.970;12.646;2023-07-09T05:41:10;101730.28;;;21.94
78961;BMP280;68362;45.970;12.646;2023-07-09T05:42:13;101725.78;;;21.79
78961;BMP280;68362;45.970;12.646;2023-07-09T05:43:15;101734.09;;;21.83
78961;BMP280;68362;45.970;12.646;2023-07-09T05:44:17;101733.03;;;21.84
78961;BMP280;68362;45.970;12.646;2023-07-09T05:45:19;101735.63;;;21.99
78961;BMP280;68362;45.970;12.646;2023-07-09T05:46:22;101730.88;;;21.86
78961;BMP280;68362;45.970;12.646;2023-07-09T05:47:26;101734.50;;;22.15
78961;BMP280;68362;45.970;12.646;2023-07-09T05:48:28;101724.84;;;22.19
78961;BMP280;68362;45.970;12.646;2023-07-09T05:49:30;101736.09;;;22.11
78961;BMP280;68362;45.970;12.646;2023-07-09T05:50:34;101733.38;;;22.21
78961;BMP280;68362;45.970;12.646;2023-07-09T05:51:36;101732.75;;;22.40
78961;BMP280;68362;45.970;12.646;2023-07-09T05:52:38;101740.03;;;22.29
78961;BMP280;68362;45.970;12.646;2023-07-09T05:53:41;101740.84;;;22.30
78961;BMP280;68362;45.970;12.646;2023-07-09T05:54:43;101734.81;;;22.53
78961;BMP280;68362;45.970;12.646;2023-07-09T05:55:45;101741.25;;;22.47